sensor_id;sensor_type;location;lat;lon;timestamp;temperature;humidity
8914;DHT22;4492;48.736;9.092;2023-08-24T00:01:16;17.00;99.90
8914;DHT22;4492;48.736;9.092;2023-08-24T00:03:44;17.00;99.90
8914;DHT22;4492;48.736;9.092;2023-08-24T00:06:11;17.00;99.90
8914;DHT22;4492;48.736;9.092;2023-08-24T00:08:37;16.90;99.90
8914;DHT22;4492;48.736;9.092;2023-08-24T00:11:02;16.90;99.90
8914;DHT22;4492;48.736;9.092;2023-08-24T00:13:28;16.90;99.90
8914;DHT22;4492;48.736;9.092;2023-08-24T00:15:54;16.90;99.90
8914;DHT22;4492;48.736;9.092;2023-08-24T00:18:19;16.90;99.90
8914;DHT22;4492;48.736;9.092;2023-08-24T00:20:47;16.90;99.90
8914;DHT22;4492;48.736;9.092;2023-08-24T00:23:13;16.80;99.90
8914;DHT22;4492;48.736;9.092;2023-08-24T00:25:39;16.80;99.90
8914;DHT22;4492;48.736;9.092;2023-08-24T00:28:06;16.80;99.90
8914;DHT22;4492;48.736;9.092;2023-08-24T00:30:32;16.80;99.90
8914;DHT22;4492;48.736;9.092;2023-08-24T00:32:57;16.70;99.90
8914;DHT22;4492;48.736;9.092;2023-08-24T00:35:23;16.70;99.90
8914;DHT22;4492;48.736;9.092;2023-08-24T00:37:49;16.70;99.90
8914;DHT22;4492;48.736;9.092;2023-08-24T00:40:16;16.60;99.90
8914;DHT22;4492;48.736;9.092;2023-08-24T00:42:43;16.60;99.90
8914;DHT22;4492;48.736;9.092;2023-08-24T00:45:10;16.60;99.90
8914;DHT22;4492;48.736;9.092;2023-08-24T00:47:43;16.60;99.90
8914;DHT22;4492;48.736;9.092;2023-08-24T00:50:10;16.60;99.90
8914;DHT22;4492;48.736;9.092;2023-08-24T00:52:38;16.60;99.90
8914;DHT22;4492;48.736;9.092;2023-08-24T00:55:06;16.60;99.90
8914;DHT22;4492;48.736;9.092;2023-08-24T00:57:32;16.70;99.90
8914;DHT22;4492;48.736;9.092;2023-08-24T00:59:59;16.60;99.90
8914;DHT22;4492;48.736;9.092;2023-08-24T01:02:24;16.70;99.90
8914;DHT22;4492;48.736;9.092;2023-08-24T01:04:50;16.60;99.90
8914;DHT22;4492;48.736;9.092;2023-08-24T01:07:16;16.60;99.90
8914;DHT22;4492;48.736;9.092;2023-08-24T01:09:42;16.60;99.90
8914;DHT22;4492;48.736;9.092;2023-08-24T01:12:52;16.60;99.90
8914;DHT22;4492;48.736;9.092;2023-08-24T01:18:04;16.60;99.90
8914;DHT22;4492;48.736;9.092;2023-08-24T01:20:30;16.60;99.90
8914;DHT22;4492;48.736;9.092;2023-08-24T01:23:36;16.60;99.90
8914;DHT22;4492;48.736;9.092;2023-08-24T01:25:58;16.60;99.90
8914;DHT22;4492;48.736;9.092;2023-08-24T01:28:25;16.50;99.90
8914;DHT22;4492;48.736;9.092;2023-08-24T01:30:51;16.50;99.90
8914;DHT22;4492;48.736;9.092;2023-08-24T01:33:16;16.50;99.90
8914;DHT22;4492;48.736;9.092;2023-08-24T01:35:42;16.50;99.90
8914;DHT22;4492;48.736;9.092;2023-08-24T01:38:08;16.50;99.90
8914;DHT22;4492;48.736;9.092;2023-08-24T01:41:02;16.40;99.90
8914;DHT22;4492;48.736;9.092;2023-08-24T01:43:30;16.40;99.90
8914;DHT22;4492;48.736;9.092;2023-08-24T01:46:00;16.40;99.90
8914;DHT22;4492;48.736;9.092;2023-08-24T01:48:29;16.40;99.90
8914;DHT22;4492;48.736;9.092;2023-08-24T01:50:55;16.40;99.90
8914;DHT22;4492;48.736;9.092;2023-08-24T01:53:22;16.40;99.90
8914;DHT22;4492;48.736;9.092;2023-08-24T01:55:47;16.40;99.90
8914;DHT22;4492;48.736;9.092;2023-08-24T01:58:13;16.40;99.90
8914;DHT22;4492;48.736;9.092;2023-08-24T02:00:38;16.40;99.90
8914;DHT22;4492;48.736;9.092;2023-08-24T02:03:04;16.40;99.90
8914;DHT22;4492;48.736;9.092;2023-08-24T02:05:30;16.40;99.90
8914;DHT22;4492;48.736;9.092;2023-08-24T02:07:55;16.50;99.90
8914;DHT22;4492;48.736;9.092;2023-08-24T02:10:22;16.50;99.90
8914;DHT22;4492;48.736;9.092;2023-08-24T02:12:48;16.50;99.90
8914;DHT22;4492;48.736;9.092;2023-08-24T02:15:13;16.50;99.90
8914;DHT22;4492;48.736;9.092;2023-08-24T02:17:39;16.40;99.90
8914;DHT22;4492;48.736;9.092;2023-08-24T02:20:06;16.40;99.90
8914;DHT22;4492;48.736;9.092;2023-08-24T02:22:33;16.30;99.90
8914;DHT22;4492;48.736;9.092;2023-08-24T02:24:58;16.20;99.90
8914;DHT22;4492;48.736;9.092;2023-08-24T02:27:24;16.20;99.90
8914;DHT22;4492;48.736;9.092;2023-08-24T02:29:49;16.20;99.90
8914;DHT22;4492;48.736;9.092;2023-08-24T02:32:15;16.20;99.90
8914;DHT22;4492;48.736;9.092;2023-08-24T02:34:40;16.10;99.90
8914;DHT22;4492;48.736;9.092;2023-08-24T02:37:06;16.10;99.90
8914;DHT22;4492;48.736;9.092;2023-08-24T02:39:32;16.20;99.90
8914;DHT22;4492;48.736;9.092;2023-08-24T02:41:57;16.20;99.90
8914;DHT22;4492;48.736;9.092;2023-08-24T02:44:23;16.20;99.90
8914;DHT22;4492;48.736;9.092;2023-08-24T02:46:49;16.30;99.90
8914;DHT22;4492;48.736;9.092;2023-08-24T02:49:14;16.30;99.90
8914;DHT22;4492;48.736;9.092;2023-08-24T02:51:40;16.30;99.90
8914;DHT22;4492;48.736;9.092;2023-08-24T02:54:06;16.40;99.90
8914;DHT22;4492;48.736;9.092;2023-08-24T02:56:31;16.40;99.90
8914;DHT22;4492;48.736;9.092;2023-08-24T02:58:57;16.40;99.90
8914;DHT22;4492;48.736;9.092;2023-08-24T03:01:22;16.40;99.90
8914;DHT22;4492;48.736;9.092;2023-08-24T03:03:48;16.30;99.90
8914;DHT22;4492;48.736;9.092;2023-08-24T03:06:14;16.40;99.90
8914;DHT22;4492;48.736;9.092;2023-08-24T03:08:39;16.40;99.90
8914;DHT22;4492;48.736;9.092;2023-08-24T03:11:05;16.30;99.90
8914;DHT22;4492;48.736;9.092;2023-08-24T03:13:31;16.30;99.90
8914;DHT22;4492;48.736;9.092;2023-08-24T03:15:56;16.30;99.90
8914;DHT22;4492;48.736;9.092;2023-08-24T03:18:22;16.30;99.90
8914;DHT22;4492;48.736;9.092;2023-08-24T03:20:48;16.40;99.90
8914;DHT22;4492;48.736;9.092;2023-08-24T03:23:15;16.30;99.90
8914;DHT22;4492;48.736;9.092;2023-08-24T03:25:41;16.30;99.90
8914;DHT22;4492;48.736;9.092;2023-08-24T03:28:08;16.30;99.90
8914;DHT22;4492;48.736;9.092;2023-08-24T03:30:36;16.30;99.90
8914;DHT22;4492;48.736;9.092;2023-08-24T03:33:02;16.30;99.90
8914;DHT22;4492;48.736;9.092;2023-08-24T03:35:30;16.30;99.90
8914;DHT22;4492;48.736;9.092;2023-08-24T03:37:56;16.30;99.90
8914;DHT22;4492;48.736;9.092;2023-08-24T03:40:21;16.30;99.90
8914;DHT22;4492;48.736;9.092;2023-08-24T03:42:47;16.30;99.90
8914;DHT22;4492;48.736;9.092;2023-08-24T03:45:12;16.30;99.90
8914;DHT22;4492;48.736;9.092;2023-08-24T03:47:38;16.30;99.90
8914;DHT22;4492;48.736;9.092;2023-08-24T03:50:04;16.40;99.90
8914;DHT22;4492;48.736;9.092;2023-08-24T03:52:29;16.30;99.90
8914;DHT22;4492;48.736;9.092;2023-08-24T03:54:55;16.40;99.90
8914;DHT22;4492;48.736;9.092;2023-08-24T03:57:20;16.40;99.90
8914;DHT22;4492;48.736;9.092;2023-08-24T03:59:46;16.50;99.90
8914;DHT22;4492;48.736;9.092;2023-08-24T04:02:11;16.50;99.90
8914;DHT22;4492;48.736;9.092;2023-08-24T04:04:37;16.50;99.90
8914;DHT22;4492;48.736;9.092;2023-08-24T04:07:02;16.60;99.90
8914;DHT22;4492;48.736;9.092;2023-08-24T04:09:28;16.60;99.90
8914;DHT22;4492;48.736;9.092;2023-08-24T04:11:54;16.70;99.90
8914;DHT22;4492;48.736;9.092;2023-08-24T04:14:19;16.70;99.90
8914;DHT22;4492;48.736;9.092;2023-08-24T04:16:45;16.80;99.90
8914;DHT22;4492;48.736;9.092;2023-08-24T04:19:11;16.90;99.90
8914;DHT22;4492;48.736;9.092;2023-08-24T04:21:36;16.90;99.90
8914;DHT22;4492;48.736;9.092;2023-08-24T04:24:02;17.00;99.90
8914;DHT22;4492;48.736;9.092;2023-08-24T04:26:27;17.00;99.90
8914;DHT22;4492;48.736;9.092;2023-08-24T04:28:53;17.00;99.90
8914;DHT22;4492;48.736;9.092;2023-08-24T04:31:18;17.00;99.90
8914;DHT22;4492;48.736;9.092;2023-08-24T04:33:44;17.10;99.90
8914;DHT22;4492;48.736;9.092;2023-08-24T04:36:09;17.10;99.90
8914;DHT22;4492;48.736;9.092;2023-08-24T04:38:35;17.20;99.90
8914;DHT22;4492;48.736;9.092;2023-08-24T04:41:00;17.20;99.90
8914;DHT22;4492;48.736;9.092;2023-08-24T04:43:26;17.30;99.90
8914;DHT22;4492;48.736;9.092;2023-08-24T04:45:53;17.30;99.90
8914;DHT22;4492;48.736;9.092;2023-08-24T04:48:23;17.40;99.90
8914;DHT22;4492;48.736;9.092;2023-08-24T04:50:49;17.40;99.90
8914;DHT22;4492;48.736;9.092;2023-08-24T04:53:16;17.40;99.90
8914;DHT22;4492;48.736;9.092;2023-08-24T04:55:42;17.40;99.90
8914;DHT22;4492;48.736;9.092;2023-08-24T04:58:08;17.40;99.90
8914;DHT22;4492;48.736;9.092;2023-08-24T05:00:35;17.50;99.90
8914;DHT22;4492;48.736;9.092;2023-08-24T05:03:01;17.60;99.90
8914;DHT22;4492;48.736;9.092;2023-08-24T05:05:29;17.60;99.90
8914;DHT22;4492;48.736;9.092;2023-08-24T05:07:55;17.70;99.90
8914;DHT22;4492;48.736;9.092;2023-08-24T05:10:21;17.80;99.90
8914;DHT22;4492;48.736;9.092;2023-08-24T05:12:47;17.90;99.90
8914;DHT22;4492;48.736;9.092;2023-08-24T05:15:12;18.00;99.90
8914;DHT22;4492;48.736;9.092;2023-08-24T05:17:39;18.00;99.90
8914;DHT22;4492;48.736;9.092;2023-08-24T05:20:06;18.10;99.90
8914;DHT22;4492;48.736;9.092;2023-08-24T05:22:31;18.20;99.90
8914;DHT22;4492;48.736;9.092;2023-08-24T05:24:57;18.30;99.90
8914;DHT22;4492;48.736;9.092;2023-08-24T05:27:22;18.40;99.90
8914;DHT22;4492;48.736;9.092;2023-08-24T05:29:48;18.50;99.90
8914;DHT22;4492;48.736;9.092;2023-08-24T05:32:13;18.60;99.90
8914;DHT22;4492;48.736;9.092;2023-08-24T05:34:39;18.70;99.90
8914;DHT22;4492;48.736;9.092;2023-08-24T05:37:04;18.80;99.90
8914;DHT22;4492;48.736;9.092;2023-08-24T05:39:30;18.90;99.90
8914;DHT22;4492;48.736;9.092;2023-08-24T05:41:55;18.90;99.90
8914;DHT22;4492;48.736;9.092;2023-08-24T05:44:21;19.00;99.90
8914;DHT22;4492;48.736;9.092;2023-08-24T05:46:47;19.00;99.90
8914;DHT22;4492;48.736;9.092;2023-08-24T05:49:13;19.10;99.90
8914;DHT22;4492;48.736;9.092;2023-08-24T05:51:38;19.20;99.90
8914;DHT22;4492;48.736;9.092;2023-08-24T05:54:04;19.30;99.90
8914;DHT22;4492;48.736;9.092;2023-08-24T05:56:29;19.50;99.90
8914;DHT22;4492;48.736;9.092;2023-08-24T05:58:57;19.60;99.90
8914;DHT22;4492;48.736;9.092;2023-08-24T06:01:23;19.80;99.90
8914;DHT22;4492;48.736;9.092;2023-08-24T06:03:50;19.90;99.90
8914;DHT22;4492;48.736;9.092;2023-08-24T06:06:16;20.00;99.90
8914;DHT22;4492;48.736;9.092;2023-08-24T06:08:43;20.10;99.90
8914;DHT22;4492;48.736;9.092;2023-08-24T06:11:09;20.20;99.90
8914;DHT22;4492;48.736;9.092;2023-08-24T06:13:34;20.30;99.90
8914;DHT22;4492;48.736;9.092;2023-08-24T06:16:00;20.30;99.90
8914;DHT22;4492;48.736;9.092;2023-08-24T06:18:25;20.40;99.90
8914;DHT22;4492;48.736;9.092;2023-08-24T06:20:51;20.40;99.90
8914;DHT22;4492;48.736;9.092;2023-08-24T06:23:18;20.50;99.90
8914;DHT22;4492;48.736;9.092;2023-08-24T06:25:44;20.50;99.90
8914;DHT22;4492;48.736;9.092;2023-08-24T06:28:11;20.60;99.90
8914;DHT22;4492;48.736;9.092;2023-08-24T06:30:38;20.60;99.90
8914;DHT22;4492;48.736;9.092;2023-08-24T06:33:05;20.70;99.90
8914;DHT22;4492;48.736;9.092;2023-08-24T06:35:30;20.70;99.90
8914;DHT22;4492;48.736;9.092;2023-08-24T06:37:56;20.70;99.90
8914;DHT22;4492;48.736;9.092;2023-08-24T06:40:21;20.70;99.90
8914;DHT22;4492;48.736;9.092;2023-08-24T06:42:47;20.70;99.90
8914;DHT22;4492;48.736;9.092;2023-08-24T06:45:12;20.80;99.90
8914;DHT22;4492;48.736;9.092;2023-08-24T06:47:39;20.80;99.90
8914;DHT22;4492;48.736;9.092;2023-08-24T06:50:06;20.70;99.90
8914;DHT22;4492;48.736;9.092;2023-08-24T06:52:31;20.70;99.90
8914;DHT22;4492;48.736;9.092;2023-08-24T06:54:57;20.60;99.90
8914;DHT22;4492;48.736;9.092;2023-08-24T06:57:23;20.50;99.90
8914;DHT22;4492;48.736;9.092;2023-08-24T06:59:48;20.50;99.90
8914;DHT22;4492;48.736;9.092;2023-08-24T07:02:14;20.50;99.90
8914;DHT22;4492;48.736;9.092;2023-08-24T07:04:40;20.60;99.90
8914;DHT22;4492;48.736;9.092;2023-08-24T07:07:06;20.70;99.90
8914;DHT22;4492;48.736;9.092;2023-08-24T07:09:32;20.90;99.90
8914;DHT22;4492;48.736;9.092;2023-08-24T07:11:57;21.00;99.90
8914;DHT22;4492;48.736;9.092;2023-08-24T07:14:23;21.10;99.90
8914;DHT22;4492;48.736;9.092;2023-08-24T07:16:48;21.40;99.90
8914;DHT22;4492;48.736;9.092;2023-08-24T07:19:14;21.60;99.90
8914;DHT22;4492;48.736;9.092;2023-08-24T07:21:39;21.70;99.90
8914;DHT22;4492;48.736;9.092;2023-08-24T07:24:05;21.80;99.90
8914;DHT22;4492;48.736;9.092;2023-08-24T07:26:31;22.00;99.90
8914;DHT22;4492;48.736;9.092;2023-08-24T07:28:57;22.20;99.90
8914;DHT22;4492;48.736;9.092;2023-08-24T07:31:22;22.30;99.90
8914;DHT22;4492;48.736;9.092;2023-08-24T07:33:48;22.10;99.90
8914;DHT22;4492;48.736;9.092;2023-08-24T07:36:14;22.10;99.90
8914;DHT22;4492;48.736;9.092;2023-08-24T07:38:39;22.10;99.90
8914;DHT22;4492;48.736;9.092;2023-08-24T07:41:05;22.30;99.90
8914;DHT22;4492;48.736;9.092;2023-08-24T07:43:32;22.40;99.90
8914;DHT22;4492;48.736;9.092;2023-08-24T07:45:58;22.50;99.90
8914;DHT22;4492;48.736;9.092;2023-08-24T07:48:23;22.60;99.90
8914;DHT22;4492;48.736;9.092;2023-08-24T07:50:49;22.70;99.90
8914;DHT22;4492;48.736;9.092;2023-08-24T07:53:14;22.80;99.90
8914;DHT22;4492;48.736;9.092;2023-08-24T07:55:41;22.90;99.90
8914;DHT22;4492;48.736;9.092;2023-08-24T07:58:07;23.10;99.90
8914;DHT22;4492;48.736;9.092;2023-08-24T08:00:32;23.40;99.90
8914;DHT22;4492;48.736;9.092;2023-08-24T08:02:58;23.60;99.90
8914;DHT22;4492;48.736;9.092;2023-08-24T08:05:24;23.80;99.90
8914;DHT22;4492;48.736;9.092;2023-08-24T08:07:49;23.90;99.90
8914;DHT22;4492;48.736;9.092;2023-08-24T08:10:15;24.00;99.90
8914;DHT22;4492;48.736;9.092;2023-08-24T08:12:42;24.10;99.90
8914;DHT22;4492;48.736;9.092;2023-08-24T08:15:08;24.20;99.90
8914;DHT22;4492;48.736;9.092;2023-08-24T08:17:34;24.30;99.90
8914;DHT22;4492;48.736;9.092;2023-08-24T08:20:00;24.40;99.90
8914;DHT22;4492;48.736;9.092;2023-08-24T08:22:25;24.50;99.90
8914;DHT22;4492;48.736;9.092;2023-08-24T08:24:51;24.60;99.90
8914;DHT22;4492;48.736;9.092;2023-08-24T08:27:19;24.60;99.90
8914;DHT22;4492;48.736;9.092;2023-08-24T08:29:45;24.80;99.90
8914;DHT22;4492;48.736;9.092;2023-08-24T08:32:11;24.90;99.90
8914;DHT22;4492;48.736;9.092;2023-08-24T08:34:37;25.00;99.20
8914;DHT22;4492;48.736;9.092;2023-08-24T08:37:03;25.00;99.20
8914;DHT22;4492;48.736;9.092;2023-08-24T08:39:29;25.20;99.30
8914;DHT22;4492;48.736;9.092;2023-08-24T08:41:55;25.30;99.50
8914;DHT22;4492;48.736;9.092;2023-08-24T08:44:22;25.40;99.70
8914;DHT22;4492;48.736;9.092;2023-08-24T08:46:49;25.50;98.60
8914;DHT22;4492;48.736;9.092;2023-08-24T08:49:16;25.50;98.50
8914;DHT22;4492;48.736;9.092;2023-08-24T08:51:42;25.50;98.70
8914;DHT22;4492;48.736;9.092;2023-08-24T08:54:08;25.40;98.50
8914;DHT22;4492;48.736;9.092;2023-08-24T08:56:34;25.40;98.70
8914;DHT22;4492;48.736;9.092;2023-08-24T08:59:00;25.50;98.70
8914;DHT22;4492;48.736;9.092;2023-08-24T09:01:27;25.70;98.30
8914;DHT22;4492;48.736;9.092;2023-08-24T09:03:53;25.80;98.00
8914;DHT22;4492;48.736;9.092;2023-08-24T09:06:19;25.90;98.30
8914;DHT22;4492;48.736;9.092;2023-08-24T09:08:45;25.90;97.60
8914;DHT22;4492;48.736;9.092;2023-08-24T09:11:12;26.00;97.10
8914;DHT22;4492;48.736;9.092;2023-08-24T09:13:37;26.10;97.20
8914;DHT22;4492;48.736;9.092;2023-08-24T09:16:06;26.10;97.50
8914;DHT22;4492;48.736;9.092;2023-08-24T09:18:36;26.20;96.80
8914;DHT22;4492;48.736;9.092;2023-08-24T09:21:10;26.30;96.60
8914;DHT22;4492;48.736;9.092;2023-08-24T09:23:35;26.40;97.10
8914;DHT22;4492;48.736;9.092;2023-08-24T09:26:01;26.40;97.10
8914;DHT22;4492;48.736;9.092;2023-08-24T09:28:26;26.40;96.30
8914;DHT22;4492;48.736;9.092;2023-08-24T09:30:53;26.50;96.40
8914;DHT22;4492;48.736;9.092;2023-08-24T09:33:20;26.60;96.40
8914;DHT22;4492;48.736;9.092;2023-08-24T09:35:53;26.70;96.30
8914;DHT22;4492;48.736;9.092;2023-08-24T09:38:22;26.80;95.70
8914;DHT22;4492;48.736;9.092;2023-08-24T09:40:54;26.80;95.50
8914;DHT22;4492;48.736;9.092;2023-08-24T09:43:20;26.80;95.30
8914;DHT22;4492;48.736;9.092;2023-08-24T09:45:53;26.90;95.20
8914;DHT22;4492;48.736;9.092;2023-08-24T09:48:20;27.00;94.70
8914;DHT22;4492;48.736;9.092;2023-08-24T09:50:47;27.10;94.60
8914;DHT22;4492;48.736;9.092;2023-08-24T09:53:20;27.20;94.70
8914;DHT22;4492;48.736;9.092;2023-08-24T09:55:53;27.40;94.20
8914;DHT22;4492;48.736;9.092;2023-08-24T09:58:19;27.40;94.20
8914;DHT22;4492;48.736;9.092;2023-08-24T10:00:46;27.50;94.40
8914;DHT22;4492;48.736;9.092;2023-08-24T10:03:16;27.70;94.30
8914;DHT22;4492;48.736;9.092;2023-08-24T10:05:47;27.70;93.90
8914;DHT22;4492;48.736;9.092;2023-08-24T10:08:13;27.80;93.80
8914;DHT22;4492;48.736;9.092;2023-08-24T10:10:41;27.90;94.40
8914;DHT22;4492;48.736;9.092;2023-08-24T10:13:14;28.00;93.30
8914;DHT22;4492;48.736;9.092;2023-08-24T10:15:43;28.10;92.90
8914;DHT22;4492;48.736;9.092;2023-08-24T10:18:12;28.00;93.10
8914;DHT22;4492;48.736;9.092;2023-08-24T10:20:38;28.10;93.10
8914;DHT22;4492;48.736;9.092;2023-08-24T10:23:04;28.20;93.30
8914;DHT22;4492;48.736;9.092;2023-08-24T10:25:30;28.20;92.70
8914;DHT22;4492;48.736;9.092;2023-08-24T10:27:57;28.40;93.00
8914;DHT22;4492;48.736;9.092;2023-08-24T10:30:23;28.60;92.80
8914;DHT22;4492;48.736;9.092;2023-08-24T10:32:49;28.60;92.10
8914;DHT22;4492;48.736;9.092;2023-08-24T10:35:19;28.60;92.30
8914;DHT22;4492;48.736;9.092;2023-08-24T10:37:45;28.80;93.00
8914;DHT22;4492;48.736;9.092;2023-08-24T10:40:13;28.90;93.50
8914;DHT22;4492;48.736;9.092;2023-08-24T10:42:46;29.20;93.00
8914;DHT22;4492;48.736;9.092;2023-08-24T10:45:14;29.30;92.30
8914;DHT22;4492;48.736;9.092;2023-08-24T10:47:46;29.50;92.50
8914;DHT22;4492;48.736;9.092;2023-08-24T10:50:12;29.60;92.30
8914;DHT22;4492;48.736;9.092;2023-08-24T10:52:37;29.60;92.40
8914;DHT22;4492;48.736;9.092;2023-08-24T10:55:05;29.60;92.60
8914;DHT22;4492;48.736;9.092;2023-08-24T10:58:03;29.70;92.00
8914;DHT22;4492;48.736;9.092;2023-08-24T11:00:29;29.70;93.00
8914;DHT22;4492;48.736;9.092;2023-08-24T11:02:56;29.90;93.00
8914;DHT22;4492;48.736;9.092;2023-08-24T11:05:29;29.90;92.80
8914;DHT22;4492;48.736;9.092;2023-08-24T11:08:03;30.00;92.70
8914;DHT22;4492;48.736;9.092;2023-08-24T11:10:34;30.00;92.50
8914;DHT22;4492;48.736;9.092;2023-08-24T11:15:38;30.10;92.10
8914;DHT22;4492;48.736;9.092;2023-08-24T11:20:47;30.30;91.90
8914;DHT22;4492;48.736;9.092;2023-08-24T11:23:17;30.40;92.20
8914;DHT22;4492;48.736;9.092;2023-08-24T11:25:44;30.20;92.30
8914;DHT22;4492;48.736;9.092;2023-08-24T11:28:09;30.00;92.00
8914;DHT22;4492;48.736;9.092;2023-08-24T11:30:35;30.10;92.30
8914;DHT22;4492;48.736;9.092;2023-08-24T11:33:02;30.10;92.20
8914;DHT22;4492;48.736;9.092;2023-08-24T11:35:28;30.20;91.90
8914;DHT22;4492;48.736;9.092;2023-08-24T11:37:55;30.30;92.00
8914;DHT22;4492;48.736;9.092;2023-08-24T11:40:21;30.40;92.00
8914;DHT22;4492;48.736;9.092;2023-08-24T11:42:56;30.50;91.80
8914;DHT22;4492;48.736;9.092;2023-08-24T11:45:23;30.60;91.80
8914;DHT22;4492;48.736;9.092;2023-08-24T11:47:52;30.60;91.40
8914;DHT22;4492;48.736;9.092;2023-08-24T11:50:18;30.70;91.40
8914;DHT22;4492;48.736;9.092;2023-08-24T11:52:44;30.70;91.70
8914;DHT22;4492;48.736;9.092;2023-08-24T11:55:10;30.80;91.40
8914;DHT22;4492;48.736;9.092;2023-08-24T11:57:36;30.90;91.20
8914;DHT22;4492;48.736;9.092;2023-08-24T12:00:06;30.90;91.30
8914;DHT22;4492;48.736;9.092;2023-08-24T12:02:32;31.00;91.40
8914;DHT22;4492;48.736;9.092;2023-08-24T12:04:58;31.00;90.80
8914;DHT22;4492;48.736;9.092;2023-08-24T12:07:25;31.00;91.20
8914;DHT22;4492;48.736;9.092;2023-08-24T12:09:51;31.00;91.10
8914;DHT22;4492;48.736;9.092;2023-08-24T12:12:19;31.00;90.70
8914;DHT22;4492;48.736;9.092;2023-08-24T12:14:49;31.00;90.60
8914;DHT22;4492;48.736;9.092;2023-08-24T12:17:16;30.90;90.90
8914;DHT22;4492;48.736;9.092;2023-08-24T12:20:01;31.00;90.90
8914;DHT22;4492;48.736;9.092;2023-08-24T12:22:31;31.20;91.20
8914;DHT22;4492;48.736;9.092;2023-08-24T12:24:56;31.40;90.60
8914;DHT22;4492;48.736;9.092;2023-08-24T12:27:24;31.40;90.50
8914;DHT22;4492;48.736;9.092;2023-08-24T12:29:51;31.70;90.20
8914;DHT22;4492;48.736;9.092;2023-08-24T12:32:18;31.90;90.00
8914;DHT22;4492;48.736;9.092;2023-08-24T12:34:48;32.30;88.20
8914;DHT22;4492;48.736;9.092;2023-08-24T12:37:15;32.50;87.20
8914;DHT22;4492;48.736;9.092;2023-08-24T12:39:40;32.50;87.30
8914;DHT22;4492;48.736;9.092;2023-08-24T12:42:06;32.50;86.20
8914;DHT22;4492;48.736;9.092;2023-08-24T12:44:32;32.50;85.60
8914;DHT22;4492;48.736;9.092;2023-08-24T12:47:01;32.40;85.60
8914;DHT22;4492;48.736;9.092;2023-08-24T12:49:27;32.20;86.00
8914;DHT22;4492;48.736;9.092;2023-08-24T12:51:53;32.00;85.60
8914;DHT22;4492;48.736;9.092;2023-08-24T12:54:19;32.10;86.30
8914;DHT22;4492;48.736;9.092;2023-08-24T12:56:44;32.40;85.60
8914;DHT22;4492;48.736;9.092;2023-08-24T12:59:10;32.60;84.70
8914;DHT22;4492;48.736;9.092;2023-08-24T13:01:37;32.70;84.50
8914;DHT22;4492;48.736;9.092;2023-08-24T13:04:03;32.90;83.10
8914;DHT22;4492;48.736;9.092;2023-08-24T13:06:28;33.20;82.20
8914;DHT22;4492;48.736;9.092;2023-08-24T13:08:54;33.30;83.20
8914;DHT22;4492;48.736;9.092;2023-08-24T13:11:20;33.50;80.60
8914;DHT22;4492;48.736;9.092;2023-08-24T13:13:46;33.60;79.70
8914;DHT22;4492;48.736;9.092;2023-08-24T13:16:11;33.70;80.10
8914;DHT22;4492;48.736;9.092;2023-08-24T13:18:37;33.80;78.80
8914;DHT22;4492;48.736;9.092;2023-08-24T13:21:02;33.90;78.20
8914;DHT22;4492;48.736;9.092;2023-08-24T13:23:28;34.00;76.50
8914;DHT22;4492;48.736;9.092;2023-08-24T13:25:53;33.90;77.50
8914;DHT22;4492;48.736;9.092;2023-08-24T13:28:21;33.90;76.40
8914;DHT22;4492;48.736;9.092;2023-08-24T13:30:46;34.00;74.00
8914;DHT22;4492;48.736;9.092;2023-08-24T13:33:13;34.00;74.40
8914;DHT22;4492;48.736;9.092;2023-08-24T13:35:40;33.80;74.10
8914;DHT22;4492;48.736;9.092;2023-08-24T13:38:06;33.80;73.70
8914;DHT22;4492;48.736;9.092;2023-08-24T13:40:32;33.80;70.90
8914;DHT22;4492;48.736;9.092;2023-08-24T13:42:57;33.70;73.30
8914;DHT22;4492;48.736;9.092;2023-08-24T13:45:23;33.70;73.60
8914;DHT22;4492;48.736;9.092;2023-08-24T13:47:48;33.50;74.40
8914;DHT22;4492;48.736;9.092;2023-08-24T13:50:14;33.50;75.30
8914;DHT22;4492;48.736;9.092;2023-08-24T13:52:39;33.60;73.40
8914;DHT22;4492;48.736;9.092;2023-08-24T13:55:05;33.40;71.90
8914;DHT22;4492;48.736;9.092;2023-08-24T13:57:31;33.40;72.10
8914;DHT22;4492;48.736;9.092;2023-08-24T13:59:57;33.50;72.70
8914;DHT22;4492;48.736;9.092;2023-08-24T14:02:22;33.60;72.20
8914;DHT22;4492;48.736;9.092;2023-08-24T14:04:48;33.70;70.80
8914;DHT22;4492;48.736;9.092;2023-08-24T14:07:13;33.80;69.80
8914;DHT22;4492;48.736;9.092;2023-08-24T14:09:39;34.00;69.60
8914;DHT22;4492;48.736;9.092;2023-08-24T14:12:04;34.10;69.60
8914;DHT22;4492;48.736;9.092;2023-08-24T14:14:30;34.20;69.70
8914;DHT22;4492;48.736;9.092;2023-08-24T14:16:56;34.20;69.10
8914;DHT22;4492;48.736;9.092;2023-08-24T14:19:23;34.10;69.40
8914;DHT22;4492;48.736;9.092;2023-08-24T14:21:48;33.90;69.20
8914;DHT22;4492;48.736;9.092;2023-08-24T14:24:14;33.70;69.40
8914;DHT22;4492;48.736;9.092;2023-08-24T14:26:39;33.50;66.60
8914;DHT22;4492;48.736;9.092;2023-08-24T14:29:11;33.20;67.20
8914;DHT22;4492;48.736;9.092;2023-08-24T14:31:36;33.00;69.20
8914;DHT22;4492;48.736;9.092;2023-08-24T14:34:02;32.80;70.80
8914;DHT22;4492;48.736;9.092;2023-08-24T14:36:28;32.60;71.20
8914;DHT22;4492;48.736;9.092;2023-08-24T14:38:54;32.50;72.20
8914;DHT22;4492;48.736;9.092;2023-08-24T14:41:20;32.30;72.90
8914;DHT22;4492;48.736;9.092;2023-08-24T14:43:46;32.20;73.20
8914;DHT22;4492;48.736;9.092;2023-08-24T14:46:12;32.10;73.80
8914;DHT22;4492;48.736;9.092;2023-08-24T14:48:37;31.90;74.70
8914;DHT22;4492;48.736;9.092;2023-08-24T14:51:04;31.70;75.00
8914;DHT22;4492;48.736;9.092;2023-08-24T14:53:29;31.60;76.90
8914;DHT22;4492;48.736;9.092;2023-08-24T14:55:56;31.30;78.90
8914;DHT22;4492;48.736;9.092;2023-08-24T14:58:22;31.10;79.40
8914;DHT22;4492;48.736;9.092;2023-08-24T15:00:53;30.80;85.80
8914;DHT22;4492;48.736;9.092;2023-08-24T15:03:19;30.10;90.80
8914;DHT22;4492;48.736;9.092;2023-08-24T15:05:55;29.20;93.10
8914;DHT22;4492;48.736;9.092;2023-08-24T15:08:21;28.60;95.00
8914;DHT22;4492;48.736;9.092;2023-08-24T15:10:48;27.90;96.90
8914;DHT22;4492;48.736;9.092;2023-08-24T15:13:14;27.40;98.90
8914;DHT22;4492;48.736;9.092;2023-08-24T15:15:39;26.80;99.90
8914;DHT22;4492;48.736;9.092;2023-08-24T15:18:05;26.30;99.90
8914;DHT22;4492;48.736;9.092;2023-08-24T15:20:31;25.80;99.90
8914;DHT22;4492;48.736;9.092;2023-08-24T15:22:59;25.40;99.90
8914;DHT22;4492;48.736;9.092;2023-08-24T15:25:24;25.10;99.90
8914;DHT22;4492;48.736;9.092;2023-08-24T15:27:50;24.80;99.90
8914;DHT22;4492;48.736;9.092;2023-08-24T15:30:15;24.60;99.90
8914;DHT22;4492;48.736;9.092;2023-08-24T15:32:41;24.50;99.90
8914;DHT22;4492;48.736;9.092;2023-08-24T15:35:07;24.30;99.90
8914;DHT22;4492;48.736;9.092;2023-08-24T15:37:32;24.20;99.90
8914;DHT22;4492;48.736;9.092;2023-08-24T15:39:58;24.10;99.90
8914;DHT22;4492;48.736;9.092;2023-08-24T15:42:24;24.10;99.90
8914;DHT22;4492;48.736;9.092;2023-08-24T15:44:49;24.00;99.90
8914;DHT22;4492;48.736;9.092;2023-08-24T15:47:15;24.00;99.90
8914;DHT22;4492;48.736;9.092;2023-08-24T15:49:40;23.90;99.90
8914;DHT22;4492;48.736;9.092;2023-08-24T15:52:07;23.80;99.90
8914;DHT22;4492;48.736;9.092;2023-08-24T15:54:32;23.70;99.90
8914;DHT22;4492;48.736;9.092;2023-08-24T15:56:58;23.60;99.90
8914;DHT22;4492;48.736;9.092;2023-08-24T15:59:24;23.50;99.90
8914;DHT22;4492;48.736;9.092;2023-08-24T16:01:50;23.50;99.90
8914;DHT22;4492;48.736;9.092;2023-08-24T16:04:16;23.40;99.90
8914;DHT22;4492;48.736;9.092;2023-08-24T16:06:42;23.40;99.90